createdAt,value
2022-11-18T00:00:39.838Z,99186.38
2022-11-18T00:03:30.618Z,99189.09
2022-11-18T00:06:21.633Z,99199.78
2022-11-18T00:09:11.138Z,99201.63
2022-11-18T00:12:17.502Z,99209.09
2022-11-18T00:15:07.928Z,99205.38
2022-11-18T00:17:57.201Z,99206.91
2022-11-18T00:20:47.806Z,99216.03
2022-11-18T00:23:37.428Z,99224.19
2022-11-18T00:26:26.956Z,99217.72
2022-11-18T00:29:17.159Z,99210.56
2022-11-18T00:32:08.113Z,99214.75
2022-11-18T00:34:57.397Z,99225.97
2022-11-18T00:37:48.394Z,99235.41
2022-11-18T00:40:37.643Z,99244.44
2022-11-18T00:43:26.023Z,99251.25
2022-11-18T00:46:15.607Z,99243.53
2022-11-18T00:49:04.969Z,99253.63
2022-11-18T00:51:54.332Z,99253.16
2022-11-18T00:54:45.083Z,99257.66
2022-11-18T00:57:34.473Z,99247.91
2022-11-18T01:00:23.836Z,99259.88
2022-11-18T01:03:14.211Z,99253.81
2022-11-18T01:06:03.617Z,99260.19
2022-11-18T01:08:53.189Z,99260.84
2022-11-18T01:12:01.428Z,99270.53
2022-11-18T01:14:50.658Z,99279.50
2022-11-18T01:17:40.041Z,99272.47
2022-11-18T01:20:29.298Z,99270.38
2022-11-18T01:23:20.687Z,99268.91
2022-11-18T01:26:13.567Z,99267.16
2022-11-18T01:29:04.617Z,99267.16
2022-11-18T01:32:22.832Z,99272.81
2022-11-18T01:35:03.262Z,99270.03
2022-11-18T01:37:52.543Z,99268.50
2022-11-18T01:40:42.669Z,99263.44
2022-11-18T01:43:51.617Z,99275.22
2022-11-18T01:46:42.264Z,99279.00
2022-11-18T01:49:31.535Z,99279.00
2022-11-18T01:52:21.876Z,99284.59
2022-11-18T01:55:19.564Z,99277.66
2022-11-18T01:58:13.811Z,99281.78
2022-11-18T02:01:04.751Z,99281.59
2022-11-18T02:03:56.134Z,99285.31
2022-11-18T02:06:47.434Z,99281.25
2022-11-18T02:09:37.930Z,99275.81
2022-11-18T02:12:27.720Z,99288.31
2022-11-18T02:15:17.796Z,99294.47
2022-11-18T02:18:16.470Z,99287.91
2022-11-18T02:21:23.734Z,99294.03
2022-11-18T02:24:44.755Z,99301.06
2022-11-18T02:28:14.172Z,99295.09
2022-11-18T02:31:11.876Z,99286.31
2022-11-18T02:34:09.152Z,99302.56
2022-11-18T02:37:07.682Z,99308.81
2022-11-18T02:40:02.136Z,99305.22
2022-11-18T02:43:00.228Z,99299.44
2022-11-18T02:45:56.167Z,99299.59
2022-11-18T02:48:51.084Z,99303.44
2022-11-18T02:51:43.170Z,99313.94
2022-11-18T02:54:35.601Z,99307.78
2022-11-18T02:57:26.782Z,99305.56
2022-11-18T03:00:18.135Z,99314.97
2022-11-18T03:03:28.275Z,99318.16
2022-11-18T03:06:31.611Z,99321.91
2022-11-18T03:09:26.261Z,99322.03
2022-11-18T03:12:25.754Z,99325.34
2022-11-18T03:15:27.445Z,99295.03
2022-11-18T03:18:24.658Z,99326.50
2022-11-18T03:21:22.180Z,99331.00
2022-11-18T03:24:20.078Z,99337.94
2022-11-18T03:27:17.796Z,99338.22
2022-11-18T03:30:11.684Z,99335.06
2022-11-18T03:33:06.512Z,99355.09
2022-11-18T03:35:58.794Z,99330.09
2022-11-18T03:38:55.560Z,99340.69
2022-11-18T03:41:49.852Z,99343.09
2022-11-18T03:44:43.617Z,99351.28
2022-11-18T03:47:40.518Z,99346.03
2022-11-18T03:50:34.033Z,99356.75
2022-11-18T03:53:27.265Z,99364.19
2022-11-18T03:56:20.055Z,99356.00
2022-11-18T03:59:17.541Z,99358.94
2022-11-18T04:02:14.607Z,99365.91
2022-11-18T04:05:07.776Z,99364.19
2022-11-18T04:08:02.834Z,99374.63
2022-11-18T04:10:59.740Z,99384.06
2022-11-18T04:13:50.525Z,99378.50
2022-11-18T04:16:42.868Z,99404.28
2022-11-18T04:19:32.257Z,99401.13
2022-11-18T04:22:22.040Z,99399.63
2022-11-18T04:25:11.446Z,99410.34
2022-11-18T04:28:00.862Z,99398.38
2022-11-18T04:30:51.781Z,99407.16
2022-11-18T04:33:40.994Z,99409.44
2022-11-18T04:36:30.311Z,99420.09
2022-11-18T04:39:19.943Z,99410.97
2022-11-18T04:42:09.350Z,99418.72
2022-11-18T04:44:58.726Z,99423.28
2022-11-18T04:47:49.420Z,99424.75
2022-11-18T04:50:38.649Z,99425.28
2022-11-18T04:53:27.931Z,99425.28
2022-11-18T04:56:17.202Z,99417.53
2022-11-18T04:59:07.285Z,99438.69
2022-11-18T05:01:57.934Z,99443.94
2022-11-18T05:04:48.625Z,99454.53
2022-11-18T05:07:37.961Z,99467.03
2022-11-18T05:10:27.320Z,99466.56
2022-11-18T05:13:15.670Z,99478.06
2022-11-18T05:16:05.173Z,99483.00
2022-11-18T05:18:54.808Z,99487.69
2022-11-18T05:21:45.794Z,99485.03
2022-11-18T05:24:35.166Z,99489.84
2022-11-18T05:27:24.439Z,99488.25
2022-11-18T05:30:15.573Z,99494.69
2022-11-18T05:33:05.005Z,99498.09
2022-11-18T05:35:55.368Z,99497.81
2022-11-18T05:38:46.652Z,99496.84
2022-11-18T05:42:01.289Z,99495.31
2022-11-18T05:44:57.457Z,99503.41
2022-11-18T05:48:04.527Z,99503.41
2022-11-18T05:50:56.172Z,99509.56
2022-11-18T05:53:47.325Z,99501.06
2022-11-18T05:56:39.753Z,99506.75
2022-11-18T05:59:29.039Z,99512.38
2022-11-18T06:02:23.384Z,99503.53
2022-11-18T06:05:13.876Z,99510.44
2022-11-18T06:08:03.506Z,99511.72
2022-11-18T06:10:54.556Z,99509.34
2022-11-18T06:13:50.606Z,99519.78
2022-11-18T06:16:45.457Z,99507.91
2022-11-18T06:19:35.635Z,99522.81
2022-11-18T06:22:25.034Z,99529.88
2022-11-18T06:25:14.514Z,99537.75
2022-11-18T06:28:05.811Z,99542.06
2022-11-18T06:30:55.111Z,99545.41
2022-11-18T06:33:44.505Z,99544.94
2022-11-18T06:36:33.788Z,99551.38
2022-11-18T06:39:23.285Z,99561.28
2022-11-18T06:42:32.652Z,99557.28
2022-11-18T06:45:23.540Z,99557.09
2022-11-18T06:48:12.983Z,99563.97
2022-11-18T06:51:02.282Z,99573.59
2022-11-18T06:53:52.096Z,99560.28
2022-11-18T06:56:41.471Z,99585.28
2022-11-18T06:59:30.763Z,99587.50
2022-11-18T07:02:21.415Z,99590.41
2022-11-18T07:05:11.258Z,99597.91
2022-11-18T07:08:00.654Z,99605.25
2022-11-18T07:10:54.383Z,99601.25
2022-11-18T07:13:44.187Z,99605.72
2022-11-18T07:16:36.536Z,99616.28
2022-11-18T07:19:31.416Z,99602.66
2022-11-18T07:22:24.912Z,99613.38
2022-11-18T07:25:14.751Z,99617.38
2022-11-18T07:28:04.111Z,99615.44
2022-11-18T07:30:53.770Z,99628.88
2022-11-18T07:33:44.616Z,99633.50
2022-11-18T07:36:36.056Z,99639.88
2022-11-18T07:39:25.767Z,99638.09
2022-11-18T07:42:15.074Z,99632.63
2022-11-18T07:45:04.724Z,99651.19
2022-11-18T07:47:54.118Z,99641.75
2022-11-18T07:50:47.139Z,99645.56
2022-11-18T07:53:38.902Z,99653.38
2022-11-18T07:56:28.766Z,99626.44
2022-11-18T07:59:18.308Z,99662.81
2022-11-18T08:02:07.957Z,99655.16
2022-11-18T08:04:57.290Z,99653.72
2022-11-18T08:07:46.717Z,99657.47
2022-11-18T08:10:37.513Z,99666.31
2022-11-18T08:13:28.056Z,99667.47
2022-11-18T08:16:19.189Z,99667.75
2022-11-18T08:19:08.486Z,99684.69
2022-11-18T08:21:57.842Z,99699.75
2022-11-18T08:24:47.377Z,99701.34
2022-11-18T08:27:38.044Z,99699.63
2022-11-18T08:30:27.390Z,99709.38
2022-11-18T08:33:16.679Z,99708.75
2022-11-18T08:36:09.497Z,99710.63
2022-11-18T08:38:59.981Z,99707.16
2022-11-18T08:41:49.292Z,99723.78
2022-11-18T08:44:39.961Z,99721.38
2022-11-18T08:47:29.271Z,99722.97
2022-11-18T08:50:18.944Z,99721.28
2022-11-18T08:53:08.255Z,99713.75
2022-11-18T08:55:58.505Z,99724.19
2022-11-18T08:58:47.994Z,99736.69
2022-11-18T09:01:42.031Z,99741.34
2022-11-18T09:04:31.492Z,99757.22
2022-11-18T09:07:22.553Z,99779.09
2022-11-18T09:10:11.882Z,99774.78
2022-11-18T09:13:18.498Z,99786.97
2022-11-18T09:16:11.048Z,99787.56
2022-11-18T09:19:18.586Z,99792.44
2022-11-18T09:22:11.957Z,99769.69
2022-11-18T09:25:01.733Z,99787.84
2022-11-18T09:27:52.856Z,99785.97
2022-11-18T09:30:42.548Z,99787.03
2022-11-18T09:33:32.136Z,99789.47
2022-11-18T09:36:25.371Z,99803.84
2022-11-18T09:39:15.042Z,99785.75
2022-11-18T09:42:22.366Z,99806.44
2022-11-18T09:45:25.416Z,99790.75
2022-11-18T09:48:20.031Z,99800.06
2022-11-18T09:51:12.768Z,99788.56
2022-11-18T09:54:03.627Z,99795.34
2022-11-18T09:56:56.523Z,99810.88
2022-11-18T09:59:46.976Z,99808.03
2022-11-18T10:02:50.119Z,99817.97
2022-11-18T10:05:49.611Z,99817.97
2022-11-18T10:08:46.569Z,99821.50
2022-11-18T10:11:50.504Z,99822.34
2022-11-18T10:15:09.482Z,99828.06
2022-11-18T10:18:26.469Z,99826.53
2022-11-18T10:21:39.233Z,99830.22
2022-11-18T10:24:34.781Z,99837.88
2022-11-18T10:27:35.728Z,99823.47
2022-11-18T10:30:27.882Z,99846.59
2022-11-18T10:33:27.814Z,99838.09
2022-11-18T10:36:34.279Z,99847.72
2022-11-18T10:39:23.642Z,99858.78
2022-11-18T10:42:28.645Z,99848.69
2022-11-18T10:45:27.894Z,99850.47
2022-11-18T10:48:20.274Z,99861.38
2022-11-18T10:51:24.078Z,99860.09
2022-11-18T10:54:18.285Z,99863.31
2022-11-18T10:57:15.915Z,99874.06
2022-11-18T11:00:28.601Z,99868.13
2022-11-18T11:03:33.205Z,99873.09
2022-11-18T11:06:37.600Z,99896.50
2022-11-18T11:09:32.580Z,99891.06
2022-11-18T11:12:22.173Z,99888.84
2022-11-18T11:15:18.609Z,99884.31
2022-11-18T11:18:31.049Z,99889.91
2022-11-18T11:21:25.292Z,99899.09
2022-11-18T11:24:15.332Z,99912.63
2022-11-18T11:30:47.447Z,99912.97
2022-11-18T11:33:46.959Z,99918.28
2022-11-18T11:36:48.573Z,99920.84
2022-11-18T11:40:03.618Z,99918.38
2022-11-18T11:43:11.595Z,99921.63
2022-11-18T11:46:30.339Z,99931.38
2022-11-18T11:49:24.627Z,99935.34
2022-11-18T11:52:24.338Z,99938.25
2022-11-18T11:55:28.417Z,99937.69
2022-11-18T11:58:39.149Z,99937.88
2022-11-18T12:01:43.384Z,99937.78
2022-11-18T12:04:43.697Z,99946.03
2022-11-18T12:07:43.857Z,99940.97
2022-11-18T12:10:46.388Z,99945.19
2022-11-18T12:13:44.806Z,99950.38
2022-11-18T12:16:44.765Z,99954.28
2022-11-18T12:19:38.695Z,99948.06
2022-11-18T12:23:16.921Z,99952.13
2022-11-18T12:26:11.288Z,99922.25
2022-11-18T12:29:25.796Z,99968.63
2022-11-18T12:32:42.407Z,99973.19
2022-11-18T12:35:38.037Z,99972.69
2022-11-18T12:38:33.585Z,99971.06
2022-11-18T12:42:11.932Z,99978.34
2022-11-18T12:45:53.911Z,99990.63
2022-11-18T12:48:44.834Z,99976.63
2022-11-18T12:51:43.632Z,99991.44
2022-11-18T12:54:36.635Z,99985.63
2022-11-18T12:57:30.295Z,100005.72
2022-11-18T13:00:52.268Z,99991.72
2022-11-18T13:03:43.401Z,99996.00
2022-11-18T13:06:34.850Z,99987.47
2022-11-18T13:09:27.440Z,100004.03
2022-11-18T13:12:20.173Z,100013.25
2022-11-18T13:15:31.893Z,100013.66
2022-11-18T13:18:22.728Z,100000.13
2022-11-18T13:21:39.076Z,100004.13
2022-11-18T13:24:28.444Z,100016.53
2022-11-18T13:27:35.615Z,100014.28
2022-11-18T13:30:25.278Z,100012.97
2022-11-18T13:33:14.821Z,100019.78
2022-11-18T13:36:04.445Z,100018.22
2022-11-18T13:39:00.023Z,100018.38
2022-11-18T13:41:59.724Z,100023.59
2022-11-18T13:44:55.337Z,100026.59
2022-11-18T13:47:51.929Z,100023.81
2022-11-18T13:50:46.824Z,100035.09
2022-11-18T13:53:38.626Z,100026.94
2022-11-18T13:56:35.164Z,100037.75
2022-11-18T13:59:26.278Z,100047.03
2022-11-18T14:02:17.575Z,100039.03
2022-11-18T14:05:08.263Z,100045.19
2022-11-18T14:08:03.674Z,100051.13
2022-11-18T14:10:52.987Z,100055.97
2022-11-18T14:13:55.114Z,100047.78
2022-11-18T14:16:44.771Z,100063.19
2022-11-18T14:19:42.468Z,100072.72
2022-11-18T14:22:32.675Z,100060.69
2022-11-18T14:25:28.523Z,100068.69
2022-11-18T14:28:25.408Z,100068.91
2022-11-18T14:31:27.249Z,100072.47
2022-11-18T14:34:25.166Z,100083.69
2022-11-18T14:37:17.249Z,100090.34
2022-11-18T14:40:14.529Z,100082.47
2022-11-18T14:43:03.962Z,100098.69
2022-11-18T14:45:56.796Z,100106.28
2022-11-18T14:48:48.187Z,100106.94
2022-11-18T14:51:37.746Z,100110.94
2022-11-18T14:54:28.462Z,100116.75
2022-11-18T14:57:19.240Z,100113.34
2022-11-18T15:00:14.376Z,100125.78
2022-11-18T15:03:03.825Z,100129.81
2022-11-18T15:05:54.689Z,100134.47
2022-11-18T15:08:44.795Z,100143.81
2022-11-18T15:11:34.017Z,100137.53
2022-11-18T15:14:23.474Z,100133.50
2022-11-18T15:17:15.005Z,100143.91
2022-11-18T15:20:07.093Z,100151.13
2022-11-18T15:22:57.919Z,100149.88
2022-11-18T15:25:47.366Z,100149.22
2022-11-18T15:28:36.972Z,100158.06
2022-11-18T15:31:26.889Z,100153.56
2022-11-18T15:34:18.261Z,100161.44
2022-11-18T15:37:07.538Z,100172.88
2022-11-18T15:39:58.300Z,100167.59
2022-11-18T15:42:52.015Z,100159.22
2022-11-18T15:45:41.752Z,100168.88
2022-11-18T15:48:31.015Z,100176.94
2022-11-18T15:51:21.207Z,100176.44
2022-11-18T15:54:10.832Z,100180.16
2022-11-18T15:57:01.509Z,100192.81
2022-11-18T15:59:50.928Z,100204.88
2022-11-18T16:02:40.228Z,100202.94
2022-11-18T16:05:29.653Z,100222.38
2022-11-18T16:08:18.970Z,100217.41
2022-11-18T16:11:25.914Z,100223.50
2022-11-18T16:14:20.048Z,100240.22
2022-11-18T16:17:09.530Z,100243.25
2022-11-18T16:19:58.866Z,100256.28
2022-11-18T16:22:48.581Z,100254.03
2022-11-18T16:25:37.924Z,100255.47
2022-11-18T16:28:28.603Z,100266.69
2022-11-18T16:31:36.634Z,100257.06
2022-11-18T16:34:28.312Z,100272.03
2022-11-18T16:37:17.629Z,100261.56
2022-11-18T16:40:08.599Z,100274.28
2022-11-18T16:42:58.052Z,100286.31
2022-11-18T16:45:52.917Z,100293.00
2022-11-18T16:48:43.783Z,100300.41
2022-11-18T16:51:34.959Z,100298.94
2022-11-18T16:54:26.693Z,100314.19
2022-11-18T16:57:16.322Z,100315.97
2022-11-18T17:00:07.229Z,100323.66
2022-11-18T17:02:56.610Z,100318.53
2022-11-18T17:05:47.290Z,100323.59
2022-11-18T17:08:37.760Z,100319.41
2022-11-18T17:11:27.392Z,100343.34
2022-11-18T17:14:16.994Z,100348.94
2022-11-18T17:17:06.385Z,100345.84
2022-11-18T17:19:55.812Z,100341.78
2022-11-18T17:22:46.554Z,100348.97
2022-11-18T17:25:36.095Z,100354.19
2022-11-18T17:28:25.492Z,100357.03
2022-11-18T17:31:16.961Z,100364.16
2022-11-18T17:34:06.652Z,100363.97
2022-11-18T17:36:57.452Z,100378.22
2022-11-18T17:39:51.053Z,100382.06
2022-11-18T17:42:40.336Z,100347.94
2022-11-18T17:45:29.788Z,100396.44
2022-11-18T17:48:19.187Z,100395.44
2022-11-18T17:51:08.603Z,100398.69
2022-11-18T17:53:58.310Z,100394.56
2022-11-18T17:56:50.017Z,100411.00
2022-11-18T17:59:39.414Z,100425.94
2022-11-18T18:02:29.030Z,100428.16
2022-11-18T18:05:18.540Z,100435.94
2022-11-18T18:08:10.052Z,100431.91
2022-11-18T18:11:02.885Z,100439.38
2022-11-18T18:14:10.967Z,100459.78
2022-11-18T18:17:00.781Z,100472.09
2022-11-18T18:19:50.080Z,100452.44
2022-11-18T18:22:39.373Z,100463.53
2022-11-18T18:25:28.749Z,100468.88
2022-11-18T18:28:17.982Z,100464.75
2022-11-18T18:31:10.971Z,100461.41
2022-11-18T18:34:00.231Z,100471.41
2022-11-18T18:36:49.536Z,100476.25
2022-11-18T18:39:39.056Z,100481.19
2022-11-18T18:42:28.920Z,100490.88
2022-11-18T18:45:35.940Z,100497.25
2022-11-18T18:48:26.734Z,100503.91
2022-11-18T18:51:17.120Z,100498.63
2022-11-18T18:54:07.462Z,100512.88
2022-11-18T18:56:56.753Z,100520.31
2022-11-18T18:59:46.067Z,100510.53
2022-11-18T19:02:35.382Z,100529.63
2022-11-18T19:05:46.166Z,100522.56
2022-11-18T19:08:35.789Z,100544.34
2022-11-18T19:11:43.088Z,100552.59
2022-11-18T19:14:34.301Z,100567.31
2022-11-18T19:17:23.708Z,100569.13
2022-11-18T19:20:32.002Z,100565.78
2022-11-18T19:23:22.676Z,100585.47
2022-11-18T19:26:11.885Z,100588.56
2022-11-18T19:29:01.583Z,100587.25
2022-11-18T19:31:50.915Z,100587.25
2022-11-18T19:34:40.245Z,100599.25
2022-11-18T19:37:29.580Z,100592.56
2022-11-18T19:40:21.083Z,100604.19
2022-11-18T19:43:10.543Z,100596.91
2022-11-18T19:46:00.171Z,100596.91
2022-11-18T19:48:51.227Z,100610.22
2022-11-18T19:51:40.519Z,100607.03
2022-11-18T19:54:30.043Z,100610.50
2022-11-18T19:57:20.907Z,100615.44
2022-11-18T20:00:12.255Z,100631.38
2022-11-18T20:03:02.809Z,100631.06
2022-11-18T20:05:55.097Z,100639.00
2022-11-18T20:08:46.120Z,100648.81
2022-11-18T20:11:36.502Z,100655.81
2022-11-18T20:14:27.358Z,100655.22
2022-11-18T20:17:16.649Z,100670.44
2022-11-18T20:20:07.191Z,100665.06
2022-11-18T20:22:56.693Z,100678.66
2022-11-18T20:25:46.256Z,100679.75
2022-11-18T20:28:37.377Z,100687.72
2022-11-18T20:31:29.057Z,100681.50
2022-11-18T20:34:18.281Z,100693.00
2022-11-18T20:37:07.704Z,100687.56
2022-11-18T20:39:57.155Z,100685.19
2022-11-18T20:43:03.853Z,100696.00
2022-11-18T20:45:56.146Z,100701.81
2022-11-18T20:48:47.263Z,100708.06
2022-11-18T20:51:36.890Z,100715.91
2022-11-18T20:54:26.272Z,100726.56
2022-11-18T20:57:15.639Z,100723.91
2022-11-18T21:00:06.019Z,100728.59
2022-11-18T21:02:56.502Z,100734.84
2022-11-18T21:05:47.256Z,100739.16
2022-11-18T21:08:36.744Z,100736.44
2022-11-18T21:11:26.819Z,100744.13
2022-11-18T21:14:23.975Z,100762.31
2022-11-18T21:17:13.893Z,100759.09
2022-11-18T21:20:23.237Z,100766.91
2022-11-18T21:23:14.697Z,100776.22
2022-11-18T21:26:07.074Z,100781.06
2022-11-18T21:29:02.629Z,100779.28
2022-11-18T21:31:52.537Z,100771.59
2022-11-18T21:34:42.195Z,100769.38
2022-11-18T21:37:33.672Z,100771.88
2022-11-18T21:40:24.321Z,100778.16
2022-11-18T21:43:13.674Z,100782.00
2022-11-18T21:46:03.680Z,100791.53
2022-11-18T21:48:57.116Z,100798.91
2022-11-18T21:51:49.297Z,100810.81
2022-11-18T21:54:38.549Z,100803.78
2022-11-18T21:57:29.526Z,100803.28
2022-11-18T22:00:19.704Z,100809.56
2022-11-18T22:03:10.343Z,100810.09
2022-11-18T22:06:01.294Z,100815.00
2022-11-18T22:08:50.657Z,100824.84
2022-11-18T22:11:39.960Z,100831.69
2022-11-18T22:14:30.638Z,100828.41
2022-11-18T22:17:19.997Z,100838.19
2022-11-18T22:20:12.682Z,100835.47
2022-11-18T22:23:03.303Z,100841.44
2022-11-18T22:25:58.266Z,100850.09
2022-11-18T22:28:48.786Z,100848.72
2022-11-18T22:31:39.546Z,100850.09
2022-11-18T22:34:29.506Z,100857.44
2022-11-18T22:37:18.807Z,100855.31
2022-11-18T22:40:10.060Z,100854.50
2022-11-18T22:42:59.335Z,100862.69
2022-11-18T22:45:49.050Z,100863.50
2022-11-18T22:48:39.711Z,100867.59
2022-11-18T22:51:29.172Z,100879.56
2022-11-18T22:57:27.765Z,100878.88
2022-11-18T23:00:18.761Z,100874.47
2022-11-18T23:03:08.044Z,100878.06
2022-11-18T23:05:58.987Z,100880.78
2022-11-18T23:08:48.381Z,100880.00
2022-11-18T23:11:55.475Z,100885.69
2022-11-18T23:14:45.156Z,100886.25
2022-11-18T23:17:34.448Z,100886.00
2022-11-18T23:20:23.919Z,100884.09
2022-11-18T23:23:14.591Z,100893.63
2022-11-18T23:26:09.389Z,100889.84
2022-11-18T23:28:58.756Z,100909.13
2022-11-18T23:31:48.295Z,100912.38
2022-11-18T23:34:37.609Z,100918.09
2022-11-18T23:37:27.187Z,100918.91
2022-11-18T23:40:18.355Z,100915.16
2022-11-18T23:43:07.645Z,100925.22
2022-11-18T23:45:58.449Z,100926.59
2022-11-18T23:48:48.384Z,100920.66
2022-11-18T23:51:37.759Z,100934.22
2022-11-18T23:54:27.065Z,100942.38
2022-11-18T23:57:17.746Z,100938.03
